Time;durP1;ratioP1;P1;durP2;ratioP2;P2;SDS_P1;SDS_P2;PMS_P1;PMS_P2;Temp;Humidity;BMP_temperature;BMP_pressure;BME280_temperature;BME280_humidity;BME280_pressure;Samples;Min_cycle;Max_cycle;Signal;HPM_P1;HPM_P2
2022/01/17 00:02:04;;;;;;;350.88;177.27;;;;;;;-0.11;61.48;95522.19;4909416;29;20480;-77
2022/01/17 00:04:29;;;;;;;356.65;175.88;;;;;;;-0.14;62.38;95522.50;4924073;29;20046;-77
2022/01/17 00:06:55;;;;;;;351.67;171.02;;;;;;;-0.16;62.14;95524.41;4925964;29;20035;-77
2022/01/17 00:09:22;;;;;;;354.10;176.40;;;;;;;-0.16;60.88;95519.28;4925961;29;20028;-78
2022/01/17 00:11:49;;;;;;;355.77;172.75;;;;;;;-0.10;62.03;95521.25;4925994;29;20039;-78
2022/01/17 00:14:17;;;;;;;365.92;180.35;;;;;;;-0.12;61.00;95520.59;4909325;29;20030;-78
2022/01/17 00:16:50;;;;;;;359.73;172.80;;;;;;;-0.17;61.05;95522.78;4943459;29;20524;-78
2022/01/17 00:21:50;;;;;;;356.05;176.65;;;;;;;-0.17;61.43;95515.09;4942856;29;20555;-78
2022/01/17 00:24:18;;;;;;;349.95;179.43;;;;;;;-0.14;61.25;95522.50;4908292;29;20027;-79
2022/01/17 00:26:44;;;;;;;347.77;178.38;;;;;;;-0.16;61.49;95529.53;4943032;29;20037;-77
2022/01/17 00:29:12;;;;;;;366.58;179.45;;;;;;;-0.11;61.00;95529.06;4925387;29;20570;-79
2022/01/17 00:31:37;;;;;;;378.45;185.55;;;;;;;-0.17;60.99;95527.88;4924825;29;20063;-77
2022/01/17 00:34:03;;;;;;;382.58;190.75;;;;;;;-0.18;61.27;95541.63;4942376;29;20046;-77
2022/01/17 00:36:28;;;;;;;318.58;166.27;;;;;;;-0.25;61.01;95530.38;4942414;29;20043;-77
2022/01/17 00:38:54;;;;;;;334.60;159.40;;;;;;;-0.23;60.58;95540.47;4909853;29;20034;-77
2022/01/17 00:41:19;;;;;;;341.60;171.82;;;;;;;-0.17;61.30;95538.09;4940414;29;20031;-77
2022/01/17 00:43:45;;;;;;;328.77;168.80;;;;;;;-0.19;60.63;95539.22;4942483;29;20043;-78
2022/01/17 00:46:10;;;;;;;280.38;143.68;;;;;;;-0.34;60.42;95526.94;4925502;29;20031;-78
2022/01/17 00:48:36;;;;;;;284.38;143.07;;;;;;;-0.28;61.23;95529.88;4909369;29;20075;-77
2022/01/17 00:51:01;;;;;;;283.70;139.88;;;;;;;-0.33;60.33;95527.75;4909043;29;20146;-78
2022/01/17 00:53:27;;;;;;;240.18;124.90;;;;;;;-0.41;60.89;95515.72;4909720;29;20031;-78
2022/01/17 00:55:52;;;;;;;304.95;152.85;;;;;;;-0.37;61.23;95522.13;4941301;29;20907;-79
2022/01/17 00:58:18;;;;;;;258.25;127.00;;;;;;;-0.47;61.07;95515.53;4924302;29;20036;-79
2022/01/17 01:00:45;;;;;;;242.55;123.65;;;;;;;-0.47;60.73;95518.06;4925549;29;20427;-79
2022/01/17 01:03:12;;;;;;;296.85;147.90;;;;;;;-0.45;61.33;95506.75;4895007;29;20046;-79
2022/01/17 01:05:38;;;;;;;292.85;150.50;;;;;;;-0.44;61.75;95520.34;4924924;29;20036;-77
2022/01/17 01:08:03;;;;;;;292.20;149.82;;;;;;;-0.48;61.75;95508.81;4941570;28;20522;-79
2022/01/17 01:10:29;;;;;;;299.00;151.85;;;;;;;-0.52;62.11;95510.03;4924756;29;20043;-79
2022/01/17 01:12:55;;;;;;;316.48;162.18;;;;;;;-0.49;61.80;95513.13;4910881;29;20042;-79
2022/01/17 01:15:33;;;;;;;321.73;161.05;;;;;;;-0.44;62.00;95499.91;4926129;29;20041;-79
2022/01/17 01:18:01;;;;;;;325.15;166.10;;;;;;;-0.43;61.61;95502.28;4933717;29;20035;-79
2022/01/17 01:28:29;;;;;;;332.20;166.18;;;;;;;-0.49;61.51;95497.78;4930090;29;20047;-78
2022/01/17 01:30:57;;;;;;;345.48;166.20;;;;;;;-0.52;61.84;95489.59;4929080;29;20426;-79
2022/01/17 01:33:30;;;;;;;343.98;174.80;;;;;;;-0.44;63.86;95498.13;4909415;29;20063;-77
2022/01/17 01:36:06;;;;;;;332.58;159.73;;;;;;;-0.47;62.11;95490.78;4910173;29;20059;-77
2022/01/17 01:38:32;;;;;;;302.50;153.05;;;;;;;-0.53;61.76;95493.09;4911177;29;20039;-77
2022/01/17 01:40:57;;;;;;;327.65;164.60;;;;;;;-0.53;61.17;95490.53;4941565;29;20424;-77
2022/01/17 01:43:23;;;;;;;323.95;163.57;;;;;;;-0.59;61.14;95493.69;4906960;29;20407;-76
2022/01/17 01:45:49;;;;;;;308.08;158.23;;;;;;;-0.56;62.20;95498.50;4923691;29;20448;-76
2022/01/17 01:48:15;;;;;;;316.35;150.52;;;;;;;-0.62;62.49;95498.16;4941912;29;20721;-77
2022/01/17 01:50:42;;;;;;;316.33;155.77;;;;;;;-0.59;61.86;95491.13;4925312;29;20047;-77
2022/01/17 01:53:08;;;;;;;300.30;152.70;;;;;;;-0.55;62.07;95489.88;4908995;29;20087;-77
2022/01/17 01:55:33;;;;;;;305.45;156.50;;;;;;;-0.56;61.53;95485.72;4909493;29;20484;-77
2022/01/17 01:57:59;;;;;;;295.17;148.52;;;;;;;-0.54;61.52;95487.19;4926337;29;20475;-77
2022/01/17 02:00:24;;;;;;;283.70;145.50;;;;;;;-0.49;61.97;95486.75;4943700;29;20035;-77
2022/01/17 02:02:50;;;;;;;317.75;153.70;;;;;;;-0.62;61.76;95472.59;4907898;29;20040;-77
2022/01/17 02:05:15;;;;;;;277.63;147.10;;;;;;;-0.64;61.28;95474.50;4943248;29;20935;-77
2022/01/17 02:07:43;;;;;;;278.95;147.55;;;;;;;-0.63;61.79;95476.13;4910503;29;20031;-77
2022/01/17 02:10:09;;;;;;;320.92;155.35;;;;;;;-0.59;61.65;95476.63;4926276;29;20526;-78
2022/01/17 02:12:34;;;;;;;312.70;156.45;;;;;;;-0.58;61.84;95467.19;4948226;29;20050;-77
2022/01/17 02:15:02;;;;;;;321.60;161.68;;;;;;;-0.71;62.14;95463.25;4940978;29;20039;-78
2022/01/17 02:17:33;;;;;;;315.38;154.38;;;;;;;-0.62;62.66;95467.50;4926281;29;20028;-77
2022/01/17 02:20:06;;;;;;;296.58;157.68;;;;;;;-0.65;62.00;95462.69;4946174;28;20036;-78
2022/01/17 02:22:31;;;;;;;308.67;159.82;;;;;;;-0.64;61.80;95463.50;4917494;29;20096;-78
2022/01/17 02:24:57;;;;;;;291.77;153.23;;;;;;;-0.64;61.77;95464.28;4932663;29;20031;-79
2022/01/17 02:27:24;;;;;;;305.42;156.43;;;;;;;-0.69;61.33;95456.25;4941877;29;20027;-78
2022/01/17 02:29:50;;;;;;;279.52;152.75;;;;;;;-0.65;61.25;95467.81;4931224;29;20039;-78
2022/01/17 02:32:15;;;;;;;276.33;145.57;;;;;;;-0.68;61.12;95447.63;4928788;29;20462;-78
2022/01/17 02:34:41;;;;;;;282.13;140.43;;;;;;;-0.71;62.09;95454.78;4908832;29;20035;-78
2022/01/17 02:37:07;;;;;;;260.20;137.50;;;;;;;-0.70;61.20;95461.50;4933683;29;20035;-78
2022/01/17 02:39:33;;;;;;;234.55;125.00;;;;;;;-0.71;60.86;95457.34;4915487;29;20051;-78
2022/01/17 02:42:01;;;;;;;250.77;128.80;;;;;;;-0.68;61.35;95457.84;4946218;29;20039;-78
2022/01/17 02:44:26;;;;;;;278.23;151.40;;;;;;;-0.72;61.42;95465.97;4929942;29;20051;-78
2022/01/17 02:46:55;;;;;;;277.95;151.88;;;;;;;-0.77;61.58;95463.84;4930859;29;20063;-77
2022/01/17 02:49:20;;;;;;;291.98;148.75;;;;;;;-0.74;62.01;95458.44;4955517;29;20040;-77
2022/01/17 02:51:48;;;;;;;296.02;157.02;;;;;;;-0.69;61.77;95456.25;4948858;29;20073;-77
2022/01/17 02:54:14;;;;;;;282.65;148.70;;;;;;;-0.71;61.66;95463.25;4944835;29;20126;-78
2022/01/17 02:56:40;;;;;;;291.27;152.48;;;;;;;-0.67;61.41;95469.66;4927335;29;20034;-77
2022/01/17 02:59:06;;;;;;;289.42;149.80;;;;;;;-0.72;61.91;95469.31;4944704;29;20111;-77
2022/01/17 03:01:31;;;;;;;278.05;136.50;;;;;;;-0.71;61.20;95458.16;4895776;29;20043;-77
2022/01/17 03:03:56;;;;;;;278.20;146.30;;;;;;;-0.71;61.66;95458.16;4929235;29;20039;-77
2022/01/17 03:06:22;;;;;;;317.85;160.77;;;;;;;-0.74;62.21;95450.78;4913266;29;20048;-78
2022/01/17 03:08:50;;;;;;;315.13;163.13;;;;;;;-0.65;62.08;95444.00;4912432;29;20020;-78
2022/01/17 03:11:22;;;;;;;320.00;161.63;;;;;;;-0.72;61.73;95446.34;4913025;29;20043;-78
2022/01/17 03:13:50;;;;;;;316.60;160.68;;;;;;;-0.71;61.58;95453.03;4927847;29;20118;-78
2022/01/17 03:16:16;;;;;;;302.33;156.75;;;;;;;-0.66;61.65;95440.63;4945827;29;20072;-78
2022/01/17 03:18:45;;;;;;;326.85;162.80;;;;;;;-0.57;61.02;95449.16;4947240;29;20047;-78
2022/01/17 03:21:12;;;;;;;329.38;162.40;;;;;;;-0.62;61.14;95444.50;4913886;29;20046;-78
2022/01/17 03:23:38;;;;;;;321.27;159.85;;;;;;;-0.65;60.83;95447.38;4930441;29;20122;-78
2022/01/17 03:26:06;;;;;;;269.80;131.85;;;;;;;-0.65;61.87;95442.25;4947382;29;20567;-78
2022/01/17 03:28:32;;;;;;;314.45;150.80;;;;;;;-0.64;61.71;95446.41;4945765;29;20038;-78
2022/01/17 03:30:57;;;;;;;236.70;125.18;;;;;;;-0.58;62.29;95456.97;4934262;29;20045;-78
2022/01/17 03:33:23;;;;;;;283.85;133.90;;;;;;;-0.50;61.72;95454.47;4928256;29;20028;-78
2022/01/17 03:35:51;;;;;;;257.90;132.18;;;;;;;-0.50;61.88;95449.38;4928096;29;20043;-78
2022/01/17 03:38:18;;;;;;;244.18;125.32;;;;;;;-0.49;60.89;95461.19;4900788;29;20067;-79
2022/01/17 03:40:46;;;;;;;257.75;124.95;;;;;;;-0.44;60.40;95448.78;4944401;29;20059;-78
2022/01/17 03:43:12;;;;;;;249.30;121.57;;;;;;;-0.53;60.65;95465.00;4926697;29;20039;-77
2022/01/17 03:45:40;;;;;;;241.82;117.40;;;;;;;-0.54;60.66;95465.94;4910508;29;20039;-77
2022/01/17 03:48:05;;;;;;;226.70;115.78;;;;;;;-0.65;59.86;95462.69;4926941;29;20990;-77
2022/01/17 03:50:30;;;;;;;251.65;121.10;;;;;;;-0.63;60.14;95465.91;4926408;29;20067;-77
2022/01/17 03:52:56;;;;;;;232.13;115.95;;;;;;;-0.59;60.62;95460.50;4926293;29;20039;-78
2022/01/17 03:55:22;;;;;;;241.25;113.72;;;;;;;-0.66;60.63;95471.28;4910292;29;20034;-77
2022/01/17 03:57:47;;;;;;;245.90;128.00;;;;;;;-0.65;60.58;95470.34;4910382;29;20035;-77
2022/01/17 04:00:21;;;;;;;272.13;139.43;;;;;;;-0.66;60.84;95475.59;4911385;29;20039;-77
2022/01/17 04:02:46;;;;;;;274.17;134.38;;;;;;;-0.71;60.57;95478.59;4911900;29;20066;-77
2022/01/17 04:05:12;;;;;;;253.98;126.10;;;;;;;-0.70;61.22;95487.84;4925144;29;20451;-77
2022/01/17 04:07:37;;;;;;;256.80;128.30;;;;;;;-0.70;61.11;95480.19;4910589;29;20082;-77
2022/01/17 04:10:03;;;;;;;275.17;129.40;;;;;;;-0.73;60.75;95480.47;4895531;29;20032;-77
2022/01/17 04:12:29;;;;;;;266.02;129.35;;;;;;;-0.72;60.84;95482.09;4928910;29;20090;-78
2022/01/17 04:14:55;;;;;;;253.30;123.72;;;;;;;-0.68;60.80;95480.84;4911868;29;20067;-78
2022/01/17 04:17:29;;;;;;;267.15;136.48;;;;;;;-0.67;60.89;95474.78;4945372;29;20114;-78
2022/01/17 04:20:03;;;;;;;289.98;141.05;;;;;;;-0.69;61.12;95481.78;4914061;29;20491;-78
2022/01/17 04:22:35;;;;;;;288.25;135.77;;;;;;;-0.61;61.18;95471.66;4915665;29;20035;-79
2022/01/17 04:25:01;;;;;;;311.17;155.70;;;;;;;-0.61;60.79;95468.31;4915039;29;20083;-79
2022/01/17 04:27:27;;;;;;;306.33;146.40;;;;;;;-0.61;60.89;95474.22;4911476;29;20053;-76
2022/01/17 04:29:52;;;;;;;347.55;179.45;;;;;;;-0.57;61.19;95463.69;4927917;29;20043;-78
2022/01/17 04:32:17;;;;;;;347.33;170.55;;;;;;;-0.54;61.39;95471.84;4895814;29;20087;-77
2022/01/17 04:34:43;;;;;;;337.02;166.80;;;;;;;-0.49;61.04;95479.06;4926352;29;20039;-77
2022/01/17 04:37:09;;;;;;;316.85;159.88;;;;;;;-0.47;60.36;95459.31;4925451;29;20032;-81
2022/01/17 04:39:35;;;;;;;304.15;150.57;;;;;;;-0.49;60.76;95462.03;4902874;29;20051;-76
2022/01/17 04:42:05;;;;;;;301.90;146.00;;;;;;;-0.53;61.06;95459.88;4909275;29;20046;-74
2022/01/17 04:47:14;;;;;;;254.60;127.03;;;;;;;-0.44;60.76;95454.72;4915633;29;20105;-80
2022/01/17 04:49:39;;;;;;;231.98;120.40;;;;;;;-0.48;60.91;95457.72;4942535;29;20039;-76
2022/01/17 04:52:12;;;;;;;255.90;129.05;;;;;;;-0.45;60.86;95448.00;4942559;29;20027;-76
2022/01/17 04:54:40;;;;;;;;;;;;;;;-0.54;61.15;95458.28;4941443;29;20046;-76
2022/01/17 04:57:07;;;;;;;246.50;114.20;;;;;;;-0.53;60.69;95454.78;4942885;29;19950;-76
2022/01/17 04:59:33;;;;;;;189.02;98.00;;;;;;;-0.53;61.51;95449.66;4893932;29;20046;-82
2022/01/17 05:01:58;;;;;;;228.57;113.80;;;;;;;-0.46;60.05;95460.91;4910103;29;20039;-74
2022/01/17 05:04:24;;;;;;;232.48;117.00;;;;;;;-0.55;60.78;95460.03;4941935;29;20027;-76
2022/01/17 05:06:49;;;;;;;202.82;102.35;;;;;;;-0.54;60.93;95459.09;4909338;29;20036;-76
2022/01/17 05:09:15;;;;;;;185.35;93.38;;;;;;;-0.48;61.61;95462.81;4924531;29;20369;-75
2022/01/17 05:11:42;;;;;;;179.10;89.90;;;;;;;-0.44;60.79;95451.34;4909662;29;20468;-75
2022/01/17 05:14:07;;;;;;;150.30;74.88;;;;;;;-0.41;59.96;95459.53;4923873;29;20024;-76
2022/01/17 05:16:37;;;;;;;163.95;84.38;;;;;;;-0.41;59.25;95454.41;4924591;29;20040;-75
2022/01/17 05:21:47;;;;;;;187.35;96.32;;;;;;;-0.47;59.04;95474.66;4926949;29;20034;-75
2022/01/17 05:24:12;;;;;;;234.35;116.20;;;;;;;-0.46;59.73;95466.03;4941069;29;20039;-74
2022/01/17 05:26:38;;;;;;;178.55;85.82;;;;;;;-0.39;59.29;95467.03;4925868;29;20510;-74
2022/01/17 05:29:03;;;;;;;170.68;87.93;;;;;;;-0.40;59.60;95466.22;4908630;29;20488;-74
2022/01/17 05:31:29;;;;;;;217.52;114.25;;;;;;;-0.38;58.67;95463.53;4924063;29;20040;-74
2022/01/17 05:33:54;;;;;;;218.63;108.28;;;;;;;-0.45;59.03;95458.22;4941775;29;20402;-74
2022/01/17 05:36:19;;;;;;;249.82;119.35;;;;;;;-0.47;59.24;95451.66;4892992;29;20591;-75
2022/01/17 05:38:45;;;;;;;382.55;188.20;;;;;;;-0.44;59.11;95448.78;4908213;29;20039;-74
2022/01/17 05:41:10;;;;;;;410.38;214.68;;;;;;;-0.48;59.68;95453.41;4941984;29;20035;-74
2022/01/17 05:43:36;;;;;;;336.48;173.20;;;;;;;-0.48;59.60;95465.38;4939338;29;20047;-74
2022/01/17 05:46:01;;;;;;;347.23;168.43;;;;;;;-0.48;59.70;95468.72;4907918;29;20039;-74
2022/01/17 05:48:27;;;;;;;278.27;145.25;;;;;;;-0.49;59.61;95471.41;4941274;29;20035;-75
2022/01/17 05:50:53;;;;;;;307.05;151.00;;;;;;;-0.52;60.25;95476.81;4941640;29;20108;-75
2022/01/17 05:53:18;;;;;;;306.20;147.38;;;;;;;-0.43;59.76;95486.16;4923522;29;20462;-74
2022/01/17 05:55:44;;;;;;;238.30;124.53;;;;;;;-0.50;60.47;95488.50;4947839;29;20031;-74
2022/01/17 05:58:11;;;;;;;272.83;135.45;;;;;;;-0.48;60.03;95480.72;4914255;29;20550;-74
2022/01/17 06:00:36;;;;;;;372.58;184.27;;;;;;;-0.48;60.29;95481.50;4947614;29;20027;-74
2022/01/17 06:03:01;;;;;;;416.02;214.45;;;;;;;-0.42;59.78;95492.88;4914013;29;20031;-74
2022/01/17 06:05:27;;;;;;;425.95;219.20;;;;;;;-0.44;59.52;95487.91;4947709;29;20035;-74
2022/01/17 06:07:52;;;;;;;371.23;174.05;;;;;;;-0.47;59.77;95478.00;4913990;29;20047;-75
2022/01/17 06:10:18;;;;;;;397.58;185.10;;;;;;;-0.36;60.03;95482.06;4930058;29;20035;-74
2022/01/17 06:12:43;;;;;;;407.63;201.52;;;;;;;-0.37;60.04;95485.56;4929630;29;20413;-74
2022/01/17 06:15:09;;;;;;;317.48;152.65;;;;;;;-0.42;60.10;95493.69;4914084;29;20039;-74
2022/01/17 06:17:34;;;;;;;475.20;242.10;;;;;;;-0.32;60.34;95488.50;4930240;29;20478;-75
2022/01/17 06:20:00;;;;;;;426.70;205.90;;;;;;;-0.22;59.51;95489.19;4898668;29;20467;-74
2022/01/17 06:22:25;;;;;;;665.65;366.30;;;;;;;-0.11;59.26;95486.41;4947373;29;20046;-74
2022/01/17 06:24:51;;;;;;;566.55;312.80;;;;;;;-0.11;58.67;95486.41;4947824;29;20031;-75
2022/01/17 06:27:17;;;;;;;410.48;196.90;;;;;;;-0.14;58.75;95481.59;4914091;29;20039;-74
2022/01/17 06:29:42;;;;;;;380.77;178.93;;;;;;;-0.01;58.66;95486.28;4947449;29;20456;-74
2022/01/17 06:32:08;;;;;;;329.98;158.27;;;;;;;0.05;57.30;95490.84;4929846;29;20526;-74
2022/01/17 06:34:33;;;;;;;493.25;279.73;;;;;;;0.19;57.39;95487.72;4913403;29;20032;-74
2022/01/17 06:36:58;;;;;;;528.05;310.20;;;;;;;0.42;57.75;95484.63;4946699;28;20082;-74
2022/01/17 06:39:24;;;;;;;573.50;361.17;;;;;;;0.57;57.11;95476.22;4930567;29;20668;-75
2022/01/17 06:41:51;;;;;;;398.55;219.38;;;;;;;0.87;56.55;95484.34;4930125;29;20028;-76
2022/01/17 06:44:20;;;;;;;197.70;97.53;;;;;;;1.14;54.17;95489.22;4929423;29;20043;-74
2022/01/17 06:46:45;;;;;;;78.93;41.90;;;;;;;1.36;51.79;95498.06;4912615;29;20047;-74
2022/01/17 06:49:13;;;;;;;66.47;28.75;;;;;;;1.46;51.03;95487.66;4947860;29;20448;-74
2022/01/17 06:51:38;;;;;;;43.67;19.58;;;;;;;1.45;50.65;95491.16;4914113;29;20034;-74
2022/01/17 06:54:04;;;;;;;42.20;21.02;;;;;;;1.33;50.80;95484.78;4946943;28;20035;-74
2022/01/17 06:56:29;;;;;;;50.65;19.05;;;;;;;1.19;50.67;95487.00;4929651;29;20027;-74
2022/01/17 06:58:55;;;;;;;52.92;19.63;;;;;;;1.14;51.38;95478.97;4945719;29;20046;-74
2022/01/17 07:01:20;;;;;;;40.58;17.67;;;;;;;1.16;51.23;95482.19;4897958;29;20077;-74
2022/01/17 07:03:46;;;;;;;55.92;22.33;;;;;;;1.26;51.65;95488.91;4898163;29;20415;-74
2022/01/17 07:06:15;;;;;;;50.42;19.48;;;;;;;1.37;51.02;95480.94;4926763;29;20040;-74
2022/01/17 07:08:40;;;;;;;33.15;15.55;;;;;;;1.44;51.30;95489.56;4927439;29;20428;-74
2022/01/17 07:11:06;;;;;;;28.70;13.15;;;;;;;1.54;50.75;95485.09;4925413;29;20032;-74
2022/01/17 07:13:31;;;;;;;36.03;13.10;;;;;;;1.69;50.14;95488.63;4926077;29;20461;-73
2022/01/17 07:15:57;;;;;;;23.23;12.43;;;;;;;1.84;50.57;95495.69;4911183;29;20500;-74
2022/01/17 07:18:22;;;;;;;24.95;11.63;;;;;;;2.02;50.48;95492.00;4943190;29;20805;-73
2022/01/17 07:20:47;;;;;;;18.67;10.38;;;;;;;2.19;50.54;95500.47;4925989;29;20054;-74
2022/01/17 07:23:13;;;;;;;21.23;9.50;;;;;;;2.35;50.40;95515.81;4925795;29;20027;-74
2022/01/17 07:25:39;;;;;;;24.55;9.55;;;;;;;2.53;50.46;95527.66;4908219;29;20074;-75
2022/01/17 07:28:06;;;;;;;23.45;10.40;;;;;;;2.72;49.36;95527.28;4910350;29;20039;-74
2022/01/17 07:30:32;;;;;;;25.10;10.10;;;;;;;2.81;48.47;95521.16;4926430;29;20044;-75
2022/01/17 07:32:57;;;;;;;22.30;9.57;;;;;;;2.92;48.63;95510.50;4908438;29;20038;-75
2022/01/17 07:35:22;;;;;;;25.60;9.98;;;;;;;3.08;47.51;95508.81;4926581;29;20039;-73
2022/01/17 07:37:48;;;;;;;24.30;9.25;;;;;;;3.15;47.17;95513.16;4925503;29;20048;-73
2022/01/17 07:40:13;;;;;;;28.65;10.55;;;;;;;3.27;46.83;95498.94;4909777;29;20102;-75
2022/01/17 07:42:39;;;;;;;23.50;9.43;;;;;;;3.41;46.99;95481.97;4910259;29;20046;-74
2022/01/17 07:45:11;;;;;;;22.45;10.77;;;;;;;3.67;46.30;95486.78;4924233;29;20046;-74
2022/01/17 07:50:06;;;;;;;58.25;17.98;;;;;;;4.16;44.63;95487.19;4941491;29;20069;-74
2022/01/17 07:52:31;;;;;;;34.13;18.25;;;;;;;4.43;44.82;95495.28;4910003;29;20102;-74
2022/01/17 07:54:57;;;;;;;34.08;16.42;;;;;;;4.67;44.09;95505.31;4925620;29;20455;-74
2022/01/17 07:57:22;;;;;;;25.25;11.80;;;;;;;4.89;42.40;95528.63;4909521;29;20482;-74
2022/01/17 07:59:48;;;;;;;21.88;10.77;;;;;;;5.09;42.01;95551.06;4942809;29;20035;-74
2022/01/17 08:02:13;;;;;;;22.67;11.85;;;;;;;5.31;41.34;95588.03;4894668;29;20038;-74
2022/01/17 08:04:39;;;;;;;18.75;10.75;;;;;;;5.53;41.35;95577.75;4925208;29;20024;-75
2022/01/17 08:07:07;;;;;;;21.88;12.52;;;;;;;5.70;41.38;95559.31;4893343;29;20563;-75
2022/01/17 08:09:32;;;;;;;11.43;7.55;;;;;;;5.87;40.83;95552.13;4909332;29;20086;-75
2022/01/17 08:11:58;;;;;;;25.35;7.90;;;;;;;5.92;41.38;95516.28;4924235;29;20031;-74
2022/01/17 08:14:24;;;;;;;17.02;11.15;;;;;;;6.08;41.17;95501.50;4924134;29;20035;-74
2022/01/17 08:16:50;;;;;;;17.05;8.90;;;;;;;6.19;40.74;95482.94;4924330;29;20486;-74
2022/01/17 08:19:16;;;;;;;22.90;11.15;;;;;;;6.28;41.18;95492.13;4920941;29;20067;-74
2022/01/17 08:21:41;;;;;;;41.50;19.40;;;;;;;6.37;41.41;95478.09;4925362;29;20514;-74
2022/01/17 08:24:07;;;;;;;29.52;15.05;;;;;;;6.49;41.68;95491.25;4909508;29;20035;-74
2022/01/17 08:26:32;;;;;;;21.45;12.57;;;;;;;6.51;40.91;95515.94;4908862;29;20090;-74
2022/01/17 08:28:58;;;;;;;14.30;9.57;;;;;;;6.49;41.16;95551.47;4924737;29;20040;-74
2022/01/17 08:31:23;;;;;;;18.90;10.32;;;;;;;6.55;40.37;95574.00;4941290;29;20046;-74
2022/01/17 08:33:48;;;;;;;14.07;7.50;;;;;;;6.53;39.44;95586.31;4925414;29;20028;-74
2022/01/17 08:36:18;;;;;;;8.52;6.45;;;;;;;6.47;40.32;95606.91;4941476;29;20042;-74
2022/01/17 08:38:44;;;;;;;15.90;8.48;;;;;;;6.56;39.17;95614.34;4942062;29;20110;-74
2022/01/17 08:41:10;;;;;;;15.35;7.53;;;;;;;6.63;37.23;95557.53;4908059;29;20115;-74
2022/01/17 08:43:35;;;;;;;18.63;8.75;;;;;;;6.76;37.46;95543.91;4908635;29;20050;-74
2022/01/17 08:46:03;;;;;;;21.35;11.90;;;;;;;6.92;37.27;95559.13;4941405;29;20050;-74
2022/01/17 08:48:28;;;;;;;21.08;11.88;;;;;;;7.04;36.79;95534.31;4924078;29;20039;-74
2022/01/17 08:50:54;;;;;;;18.83;10.98;;;;;;;7.08;35.63;95508.88;4908385;29;20046;-73
2022/01/17 08:53:19;;;;;;;17.77;8.27;;;;;;;7.08;35.21;95495.94;4942081;29;20086;-74
2022/01/17 08:55:47;;;;;;;17.25;8.73;;;;;;;7.11;36.05;95454.97;4908873;29;20043;-74
2022/01/17 08:58:13;;;;;;;16.92;8.88;;;;;;;7.14;36.19;95444.22;4925085;29;20062;-74
2022/01/17 09:00:39;;;;;;;16.90;10.93;;;;;;;7.23;36.10;95468.94;4908055;29;20039;-74
2022/01/17 09:03:05;;;;;;;20.40;9.30;;;;;;;7.26;36.48;95472.13;4924349;29;20604;-74
2022/01/17 09:05:31;;;;;;;12.57;7.93;;;;;;;7.26;36.01;95425.56;4923350;29;20027;-74
2022/01/17 09:07:56;;;;;;;16.35;9.63;;;;;;;7.23;36.35;95391.34;4940960;29;20118;-74
2022/01/17 09:10:22;;;;;;;19.00;9.52;;;;;;;7.21;36.57;95414.03;4924227;29;20089;-74
2022/01/17 09:12:47;;;;;;;17.77;10.27;;;;;;;7.25;36.32;95403.28;4908710;29;20511;-74
2022/01/17 09:15:13;;;;;;;25.20;14.82;;;;;;;7.19;36.70;95410.03;4923191;29;20043;-74
2022/01/17 09:17:38;;;;;;;25.98;11.57;;;;;;;7.18;37.22;95404.06;4940351;29;20166;-74
2022/01/17 09:20:05;;;;;;;21.02;11.65;;;;;;;7.14;36.77;95413.19;4941115;29;20046;-74
2022/01/17 09:22:32;;;;;;;16.73;8.00;;;;;;;7.13;37.15;95396.09;4891903;29;20046;-74
2022/01/17 09:24:57;;;;;;;10.13;6.78;;;;;;;7.13;37.60;95398.66;4923965;29;20039;-75
2022/01/17 09:27:29;;;;;;;9.13;5.90;;;;;;;6.96;37.46;95399.22;4923756;29;20034;-77
2022/01/17 09:29:54;;;;;;;12.00;6.15;;;;;;;6.76;38.16;95422.44;4907564;29;20035;-75
2022/01/17 09:32:20;;;;;;;20.27;8.15;;;;;;;6.54;39.91;95425.13;4924421;29;20038;-75
2022/01/17 09:34:46;;;;;;;18.23;9.18;;;;;;;6.25;41.97;95422.78;4941424;29;20038;-75
2022/01/17 09:37:12;;;;;;;17.98;9.35;;;;;;;6.01;43.24;95411.88;4940378;29;20441;-75
2022/01/17 09:39:37;;;;;;;13.38;9.05;;;;;;;5.91;43.95;95431.28;4907931;29;20094;-74
2022/01/17 09:42:05;;;;;;;27.77;10.05;;;;;;;5.85;44.09;95432.78;4923894;29;20035;-74
2022/01/17 09:44:30;;;;;;;29.58;11.70;;;;;;;5.73;45.14;95448.00;4939721;29;20067;-74
2022/01/17 09:46:57;;;;;;;19.05;10.13;;;;;;;5.74;45.09;95438.47;4906668;29;20035;-74
2022/01/17 09:49:34;;;;;;;16.23;10.75;;;;;;;5.75;45.37;95439.25;4923762;29;20038;-74
2022/01/17 09:52:13;;;;;;;15.68;10.93;;;;;;;5.66;45.96;95417.94;4940205;29;20027;-73
2022/01/17 09:54:44;;;;;;;27.73;11.77;;;;;;;5.49;46.94;95450.13;4925169;29;20047;-74
2022/01/17 09:57:10;;;;;;;24.23;11.48;;;;;;;5.42;47.35;95445.72;4908834;29;20036;-74
2022/01/17 09:59:38;;;;;;;21.20;10.27;;;;;;;5.43;47.44;95460.22;4892597;29;20035;-74
2022/01/17 10:02:04;;;;;;;13.57;10.13;;;;;;;5.35;48.12;95447.41;4941033;29;20046;-74
2022/01/17 10:04:30;;;;;;;29.42;7.97;;;;;;;5.11;48.95;95427.16;4923680;29;20063;-73
2022/01/17 10:06:57;;;;;;;15.70;6.75;;;;;;;4.93;49.97;95431.91;4907295;29;20036;-75
2022/01/17 10:09:24;;;;;;;13.88;7.03;;;;;;;4.88;50.30;95439.38;4906704;29;20118;-73
2022/01/17 10:12:15;;;;;;;8.38;6.30;;;;;;;4.57;50.28;95460.22;4907952;29;20091;-75
2022/01/17 10:14:58;;;;;;;8.80;6.30;;;;;;;4.46;51.54;95441.66;4938784;29;20845;-75
2022/01/17 10:17:24;;;;;;;11.93;6.13;;;;;;;4.42;52.08;95478.25;4924850;29;20426;-75
2022/01/17 10:19:59;;;;;;;18.40;6.93;;;;;;;4.36;52.23;95461.72;4940029;29;20031;-75
2022/01/17 10:22:30;;;;;;;11.20;7.25;;;;;;;4.47;51.80;95450.19;4924458;29;20039;-75
2022/01/17 10:25:22;;;;;;;12.20;6.27;;;;;;;4.42;51.70;95455.06;4924017;29;20038;-75
2022/01/17 10:28:17;;;;;;;6.85;6.13;;;;;;;4.29;52.18;95454.88;4933187;29;20046;-75
2022/01/17 10:31:01;;;;;;;13.18;5.72;;;;;;;4.27;51.91;95437.03;4927344;29;20110;-75
2022/01/17 10:36:08;;;;;;;13.80;5.60;;;;;;;4.00;52.78;95435.84;4911984;29;20566;-74
2022/01/17 10:38:34;;;;;;;8.43;6.53;;;;;;;3.93;52.73;95432.41;4923580;29;20035;-75
2022/01/17 10:41:01;;;;;;;13.60;5.93;;;;;;;3.81;53.06;95438.94;4925735;29;20058;-75
2022/01/17 10:43:34;;;;;;;13.68;6.82;;;;;;;3.85;53.50;95432.47;4911457;29;20460;-74
2022/01/17 10:46:01;;;;;;;10.23;7.00;;;;;;;3.89;53.91;95434.50;4912319;29;20476;-74
2022/01/17 10:48:31;;;;;;;10.60;6.82;;;;;;;3.97;53.26;95420.78;4944433;29;20164;-77
2022/01/17 10:50:56;;;;;;;8.32;6.85;;;;;;;4.02;53.39;95431.31;4943748;29;20035;-75
2022/01/17 10:53:21;;;;;;;14.90;8.00;;;;;;;4.12;53.24;95424.16;4909219;29;20416;-75
2022/01/17 10:55:52;;;;;;;17.38;9.45;;;;;;;4.20;52.85;95413.75;4910283;29;20155;-75
2022/01/17 10:58:24;;;;;;;15.38;10.15;;;;;;;4.26;52.29;95425.16;4910904;29;20058;-75
2022/01/17 11:00:54;;;;;;;19.88;10.02;;;;;;;4.39;52.29;95434.81;4926972;29;20035;-75
2022/01/17 11:03:27;;;;;;;31.92;17.33;;;;;;;4.52;51.70;95427.25;4909798;29;20038;-75
2022/01/17 11:05:56;;;;;;;42.17;20.73;;;;;;;4.64;51.33;95418.09;4942377;29;20046;-75
2022/01/17 11:08:23;;;;;;;20.38;12.43;;;;;;;4.74;50.94;95402.38;4909059;29;20050;-74
2022/01/17 11:10:56;;;;;;;17.42;10.00;;;;;;;4.80;50.36;95410.16;4944074;29;20164;-74
2022/01/17 11:13:24;;;;;;;15.07;8.93;;;;;;;4.85;50.06;95406.25;4895998;29;20055;-75
2022/01/17 11:15:57;;;;;;;12.65;8.98;;;;;;;4.93;50.62;95411.31;4924209;29;20127;-75
2022/01/17 11:18:26;;;;;;;23.20;11.55;;;;;;;5.03;49.87;95406.63;4942056;29;20505;-75
2022/01/17 11:21:10;;;;;;;28.45;11.60;;;;;;;5.21;48.65;95399.31;4925707;29;20416;-74
2022/01/17 11:23:37;;;;;;;28.83;13.82;;;;;;;5.35;48.69;95395.84;4924873;29;20043;-75
2022/01/17 11:26:05;;;;;;;12.55;6.53;;;;;;;5.48;46.74;95363.41;4925887;29;20031;-72
2022/01/17 11:28:31;;;;;;;8.55;6.65;;;;;;;5.36;47.27;95373.44;4894867;29;20039;-83
2022/01/17 11:30:58;;;;;;;14.80;7.95;;;;;;;5.42;47.33;95372.72;4926366;29;20057;-77
2022/01/17 11:33:23;;;;;;;10.77;6.47;;;;;;;5.54;46.91;95362.69;4926387;29;20067;-77
2022/01/17 11:35:52;;;;;;;15.60;8.43;;;;;;;5.59;46.55;95370.66;4909265;29;20106;-76